Time;durP1;ratioP1;P1;durP2;ratioP2;P2;SDS_P1;SDS_P2;PMS_P1;PMS_P2;Temp;Humidity;BMP_temperature;BMP_pressure;BME280_temperature;BME280_humidity;BME280_pressure;Samples;Min_cycle;Max_cycle;Signal;HPM_P1;HPM_P2
2021/09/08 00:00:16;;;;;;;19.33;14.17;;;;;;;10.50;77.60;99703.48;2281665;78;20942;-82
2021/09/08 00:03:18;;;;;;;19.53;12.47;;;;;;;10.46;77.57;99699.45;2260799;78;21352;-81
2021/09/08 00:06:19;;;;;;;19.13;13.50;;;;;;;10.41;77.45;99702.37;2281554;78;21278;-82
2021/09/08 00:09:19;;;;;;;22.57;14.03;;;;;;;10.35;77.48;99700.87;2281793;78;20929;-82
2021/09/08 00:12:19;;;;;;;21.27;13.13;;;;;;;10.32;77.62;99699.06;2283330;78;21030;-82
2021/09/08 00:15:20;;;;;;;24.37;14.27;;;;;;;10.33;77.69;99703.44;2290739;78;20999;-82
2021/09/08 00:18:21;;;;;;;18.07;13.63;;;;;;;10.31;77.98;99703.81;2290761;78;20987;-82
2021/09/08 00:21:21;;;;;;;16.50;13.60;;;;;;;10.28;77.65;99702.85;2291285;78;20932;-82
2021/09/08 00:24:22;;;;;;;20.80;13.87;;;;;;;10.23;77.71;99703.16;2291259;78;21466;-82
2021/09/08 00:27:22;;;;;;;15.90;12.53;;;;;;;10.21;77.57;99705.30;2291496;78;21339;-82
2021/09/08 00:30:23;;;;;;;19.17;14.43;;;;;;;10.18;77.63;99703.87;2291616;78;20947;-82
2021/09/08 00:33:23;;;;;;;17.07;13.63;;;;;;;10.14;77.88;99698.12;2291303;78;20932;-82
2021/09/08 00:36:24;;;;;;;16.57;12.93;;;;;;;10.12;78.04;99702.41;2291299;78;20959;-83
2021/09/08 00:39:24;;;;;;;23.13;14.03;;;;;;;10.08;78.19;99707.08;2290524;78;21011;-81
2021/09/08 00:42:25;;;;;;;45.00;14.50;;;;;;;10.04;78.09;99709.14;2290397;78;20936;-81
2021/09/08 00:45:26;;;;;;;25.57;14.07;;;;;;;10.02;78.32;99708.22;2290853;78;21027;-81
2021/09/08 00:48:26;;;;;;;21.47;13.97;;;;;;;10.03;78.36;99705.19;2291114;78;20984;-81
2021/09/08 00:51:27;;;;;;;17.63;13.83;;;;;;;10.00;78.57;99705.10;2289977;78;21007;-81
2021/09/08 00:54:27;;;;;;;26.83;14.83;;;;;;;9.99;78.47;99704.22;2290023;78;20995;-82
2021/09/08 00:57:28;;;;;;;20.43;14.13;;;;;;;9.96;78.58;99701.95;2290364;78;21022;-81
2021/09/08 01:00:28;;;;;;;21.13;14.73;;;;;;;9.92;78.39;99703.59;2290398;78;21327;-82
2021/09/08 01:03:30;;;;;;;20.40;14.50;;;;;;;9.89;78.38;99703.08;2289971;78;21024;-82
2021/09/08 01:06:30;;;;;;;23.83;14.60;;;;;;;9.89;78.45;99708.72;2290637;78;20955;-81
2021/09/08 01:09:31;;;;;;;19.57;14.93;;;;;;;9.81;78.32;99705.89;2291522;78;20977;-81
2021/09/08 01:12:31;;;;;;;24.63;14.33;;;;;;;9.77;78.50;99704.45;2288973;78;20982;-81
2021/09/08 01:15:32;;;;;;;18.20;13.13;;;;;;;9.74;78.64;99701.77;2281265;78;20973;-82
2021/09/08 01:18:32;;;;;;;24.43;14.07;;;;;;;9.72;78.62;99698.23;2281498;78;20981;-81
2021/09/08 01:21:33;;;;;;;17.80;13.60;;;;;;;9.75;78.68;99700.92;2281403;78;20973;-81
2021/09/08 01:24:33;;;;;;;21.77;14.77;;;;;;;9.71;78.86;99706.89;2281310;77;21041;-81
2021/09/08 01:27:34;;;;;;;19.87;13.40;;;;;;;9.70;78.84;99711.64;2281408;78;21313;-81
2021/09/08 01:30:34;;;;;;;22.77;13.90;;;;;;;9.72;78.92;99715.17;2281727;78;20946;-81
2021/09/08 01:33:35;;;;;;;21.93;15.17;;;;;;;9.70;78.97;99707.73;2281466;78;20942;-81
2021/09/08 01:36:35;;;;;;;23.53;14.10;;;;;;;9.66;79.01;99705.88;2281586;78;20907;-81
2021/09/08 01:39:36;;;;;;;19.10;13.57;;;;;;;9.64;79.14;99704.94;2281439;78;20938;-81
2021/09/08 01:42:37;;;;;;;22.57;14.30;;;;;;;9.62;78.98;99702.30;2281432;78;21215;-81
2021/09/08 01:45:37;;;;;;;25.57;16.03;;;;;;;9.56;78.94;99703.00;2281844;78;20937;-81
2021/09/08 01:48:38;;;;;;;21.83;15.37;;;;;;;9.55;79.10;99706.86;2281056;78;20985;-81
2021/09/08 01:51:38;;;;;;;21.53;14.30;;;;;;;9.54;79.12;99709.89;2280771;78;20945;-81
2021/09/08 01:54:38;;;;;;;20.00;14.73;;;;;;;9.52;79.01;99703.71;2281435;78;20981;-81
2021/09/08 01:57:39;;;;;;;22.60;14.03;;;;;;;9.51;79.10;99707.58;2281586;78;20966;-81
2021/09/08 02:00:39;;;;;;;64.83;16.90;;;;;;;9.47;79.10;99707.02;2281568;78;21313;-82
2021/09/08 02:03:40;;;;;;;24.77;14.77;;;;;;;9.44;79.20;99710.42;2281613;78;21002;-81
2021/09/08 02:06:40;;;;;;;22.20;14.33;;;;;;;9.41;79.14;99714.23;2282086;78;21009;-81
2021/09/08 02:09:41;;;;;;;16.37;13.30;;;;;;;9.38;79.17;99710.23;2281883;78;20918;-81
2021/09/08 02:12:42;;;;;;;25.37;15.50;;;;;;;9.37;79.32;99712.80;2275032;77;20979;-81
2021/09/08 02:15:42;;;;;;;21.83;14.17;;;;;;;9.35;79.33;99715.35;2249400;79;21043;-80
2021/09/08 02:18:43;;;;;;;19.90;13.93;;;;;;;9.33;79.40;99707.91;2249667;78;20987;-81
2021/09/08 02:21:43;;;;;;;20.30;13.93;;;;;;;9.33;79.07;99714.84;2248907;78;20939;-80
2021/09/08 02:24:44;;;;;;;22.20;13.53;;;;;;;9.27;79.08;99711.63;2248169;79;20976;-81
2021/09/08 02:27:45;;;;;;;114.63;21.50;;;;;;;9.28;79.24;99709.48;2249178;78;20936;-82
2021/09/08 02:30:46;;;;;;;19.20;13.90;;;;;;;9.23;79.32;99706.74;2248699;79;21430;-82
2021/09/08 02:33:46;;;;;;;16.70;13.73;;;;;;;9.21;79.26;99717.53;2249185;78;20979;-81
2021/09/08 02:36:47;;;;;;;50.80;18.10;;;;;;;9.15;79.01;99715.16;2248893;78;20956;-82
2021/09/08 02:39:48;;;;;;;22.17;14.90;;;;;;;9.20;79.62;99716.19;2249081;78;20960;-82
2021/09/08 02:42:49;;;;;;;24.60;14.20;;;;;;;9.19;79.29;99714.42;2248967;79;20987;-82
2021/09/08 02:45:49;;;;;;;19.37;14.73;;;;;;;9.12;79.23;99715.95;2249439;78;20975;-82
2021/09/08 02:48:50;;;;;;;20.33;14.83;;;;;;;9.11;79.13;99717.20;2249242;78;20988;-82
2021/09/08 02:51:50;;;;;;;27.07;15.03;;;;;;;9.06;79.20;99715.75;2248644;78;20992;-81
2021/09/08 02:54:50;;;;;;;19.60;14.80;;;;;;;9.03;79.33;99716.08;2248925;78;21030;-81
2021/09/08 02:57:54;;;;;;;18.00;13.33;;;;;;;9.00;79.24;99708.17;2249137;78;20998;-83
2021/09/08 03:00:54;;;;;;;24.00;14.73;;;;;;;8.97;79.29;99710.67;2249186;79;20980;-81
2021/09/08 03:03:55;;;;;;;51.70;16.20;;;;;;;8.94;79.37;99713.64;2249179;78;21351;-81
2021/09/08 03:06:56;;;;;;;27.97;14.70;;;;;;;8.92;79.48;99715.31;2249167;78;20964;-82
2021/09/08 03:09:56;;;;;;;20.20;13.93;;;;;;;8.93;79.74;99714.48;2249245;79;21012;-82
2021/09/08 03:12:57;;;;;;;21.73;13.70;;;;;;;8.91;79.53;99714.85;2255986;78;20990;-81
2021/09/08 03:15:57;;;;;;;33.83;14.70;;;;;;;8.90;79.29;99714.80;2281823;78;20945;-81
2021/09/08 03:18:58;;;;;;;24.60;14.43;;;;;;;8.86;79.15;99712.52;2281614;78;20989;-82
2021/09/08 03:21:58;;;;;;;39.83;15.80;;;;;;;8.81;79.26;99715.39;2281334;78;20989;-81
2021/09/08 03:24:59;;;;;;;26.60;15.73;;;;;;;8.79;79.32;99711.85;2281050;78;21017;-82
2021/09/08 03:27:59;;;;;;;17.80;13.63;;;;;;;8.78;79.41;99715.29;2280936;78;21624;-83
2021/09/08 03:31:00;;;;;;;19.03;13.83;;;;;;;8.75;79.06;99715.19;2281104;78;20969;-83
2021/09/08 03:34:00;;;;;;;21.97;14.93;;;;;;;8.71;79.34;99713.32;2281617;78;20976;-81
2021/09/08 03:37:07;;;;;;;24.30;14.40;;;;;;;8.65;79.31;99709.18;2281044;78;20981;-81
2021/09/08 03:40:07;;;;;;;21.30;14.03;;;;;;;8.61;79.25;99711.21;2281167;78;20995;-82
2021/09/08 03:43:08;;;;;;;42.07;15.70;;;;;;;8.58;79.38;99717.62;2281437;78;20922;-80
2021/09/08 03:46:09;;;;;;;45.40;16.23;;;;;;;8.57;79.64;99710.64;2280621;78;20977;-81
2021/09/08 03:49:09;;;;;;;27.70;15.17;;;;;;;8.57;79.97;99715.84;2280857;78;21338;-81
2021/09/08 03:52:10;;;;;;;21.73;13.73;;;;;;;8.57;79.51;99711.53;2280884;78;20958;-81
2021/09/08 03:55:10;;;;;;;21.63;13.73;;;;;;;8.53;79.43;99712.26;2280403;78;21008;-82
2021/09/08 03:58:11;;;;;;;45.47;15.13;;;;;;;8.51;79.24;99716.95;2280742;78;20957;-81
2021/09/08 04:01:11;;;;;;;23.77;15.50;;;;;;;8.48;79.59;99716.42;2280679;78;20997;-81
2021/09/08 04:04:11;;;;;;;18.57;14.07;;;;;;;8.52;79.79;99719.59;2280108;78;20961;-82
2021/09/08 04:07:12;;;;;;;20.27;13.63;;;;;;;8.53;79.74;99719.18;2279998;78;21647;-81
2021/09/08 04:10:12;;;;;;;21.87;15.27;;;;;;;8.54;79.78;99717.93;2280136;78;20977;-81
2021/09/08 04:13:13;;;;;;;19.50;14.50;;;;;;;8.56;79.66;99716.68;2280095;77;20958;-82
2021/09/08 04:16:13;;;;;;;21.23;13.70;;;;;;;8.54;79.49;99722.25;2280356;78;20976;-81
2021/09/08 04:19:14;;;;;;;28.63;15.23;;;;;;;8.52;79.46;99722.62;2280243;78;21005;-80
2021/09/08 04:22:14;;;;;;;18.07;14.03;;;;;;;8.51;79.67;99720.43;2280345;78;21380;-83
2021/09/08 04:25:15;;;;;;;19.57;14.00;;;;;;;8.55;79.60;99718.81;2279539;78;20974;-81
2021/09/08 04:28:15;;;;;;;34.30;14.97;;;;;;;8.57;79.73;99719.75;2279770;78;20963;-79
2021/09/08 04:31:16;;;;;;;22.67;14.37;;;;;;;8.63;79.92;99723.44;2281533;78;20969;-80
2021/09/08 04:34:16;;;;;;;21.07;13.57;;;;;;;8.70;79.84;99725.87;2280273;78;21373;-81
2021/09/08 04:37:17;;;;;;;21.23;14.40;;;;;;;8.76;79.59;99727.79;2280421;78;20977;-81
2021/09/08 04:40:17;;;;;;;21.10;14.37;;;;;;;8.82;79.48;99731.89;2280430;78;20977;-82
2021/09/08 04:43:18;;;;;;;31.23;15.07;;;;;;;8.87;79.44;99720.80;2280814;78;20981;-82
2021/09/08 04:46:19;;;;;;;93.23;19.13;;;;;;;8.91;79.34;99721.36;2279561;78;20950;-83
2021/09/08 04:49:19;;;;;;;28.83;14.80;;;;;;;9.02;79.52;99725.61;2280300;78;20953;-81
2021/09/08 04:52:20;;;;;;;20.87;14.27;;;;;;;9.15;79.40;99726.46;2281383;78;20958;-81
2021/09/08 04:55:20;;;;;;;360.37;242.97;;;;;;;9.22;79.26;99735.35;2279508;78;20970;-82
2021/09/08 04:58:21;;;;;;;63.07;42.03;;;;;;;9.33;79.23;99730.47;2279944;78;21398;-80
2021/09/08 05:01:21;;;;;;;34.87;18.03;;;;;;;9.42;79.23;99729.45;2280388;78;20906;-81
2021/09/08 05:04:22;;;;;;;63.17;16.50;;;;;;;9.52;79.25;99724.56;2280456;78;20914;-80
2021/09/08 05:07:22;;;;;;;68.73;17.37;;;;;;;9.65;79.35;99727.15;2280212;78;20961;-81
2021/09/08 05:10:23;;;;;;;21.87;15.27;;;;;;;9.80;79.32;99729.31;2279222;78;20965;-82
2021/09/08 05:13:23;;;;;;;27.87;14.90;;;;;;;9.95;79.21;99733.66;2279980;78;21386;-82
2021/09/08 05:16:24;;;;;;;388.13;39.60;;;;;;;10.11;79.02;99734.55;2280810;78;20997;-82
2021/09/08 05:19:24;;;;;;;31.67;14.67;;;;;;;10.24;78.99;99737.11;2280471;78;21004;-83
2021/09/08 05:22:25;;;;;;;18.73;14.00;;;;;;;10.46;78.98;99738.61;2280495;78;20930;-82
2021/09/08 05:25:25;;;;;;;47.23;30.30;;;;;;;10.67;78.79;99739.16;2280411;78;21020;-79
2021/09/08 05:28:26;;;;;;;55.03;34.27;;;;;;;10.84;78.60;99739.16;2280158;78;20934;-79
2021/09/08 05:31:26;;;;;;;24.57;15.87;;;;;;;11.06;78.81;99741.87;2279510;78;20930;-80
2021/09/08 05:34:27;;;;;;;20.87;13.97;;;;;;;11.32;78.57;99744.25;2279077;78;21336;-80
2021/09/08 05:37:27;;;;;;;59.03;16.00;;;;;;;11.52;78.54;99744.70;2279095;78;20962;-79
2021/09/08 05:40:28;;;;;;;20.00;13.90;;;;;;;11.66;78.29;99746.77;2278776;78;20957;-83
2021/09/08 05:43:28;;;;;;;56.50;14.85;;;;;;;11.89;78.08;99751.64;2279171;78;20930;-79
2021/09/08 05:46:29;;;;;;;16.52;12.98;;;;;;;12.07;77.95;99750.28;2280025;78;20962;-79
2021/09/08 05:49:29;;;;;;;20.27;12.82;;;;;;;12.24;77.80;99753.27;2280673;78;20949;-81
2021/09/08 05:52:30;;;;;;;17.77;12.43;;;;;;;12.42;77.71;99753.62;2279994;78;20977;-82
2021/09/08 05:55:30;;;;;;;259.73;190.03;;;;;;;12.60;77.72;99749.15;2279286;78;21380;-80
2021/09/08 05:58:31;;;;;;;103.80;60.38;;;;;;;12.74;77.55;99748.08;2278991;78;20957;-79
2021/09/08 06:01:31;;;;;;;48.63;15.70;;;;;;;12.93;77.49;99753.20;2279213;78;20930;-80
2021/09/08 06:04:32;;;;;;;26.70;15.23;;;;;;;13.15;77.28;99749.23;2279457;78;20973;-82
2021/09/08 06:07:32;;;;;;;94.95;21.42;;;;;;;13.43;77.50;99746.63;2279246;78;20922;-81
2021/09/08 06:10:33;;;;;;;69.10;18.55;;;;;;;13.66;76.80;99742.16;2278909;78;21647;-80
2021/09/08 06:13:33;;;;;;;50.23;17.90;;;;;;;13.90;76.47;99752.13;2281245;78;20976;-80
2021/09/08 06:16:34;;;;;;;27.67;15.10;;;;;;;14.18;76.81;99746.78;2289239;78;20982;-81
2021/09/08 06:19:35;;;;;;;45.38;19.50;;;;;;;14.43;76.73;99747.97;2290086;78;20975;-80
2021/09/08 06:22:36;;;;;;;28.67;19.62;;;;;;;14.69;76.81;99744.30;2290342;78;21050;-80
2021/09/08 06:25:36;;;;;;;68.12;48.17;;;;;;;15.00;76.74;99736.28;2289189;78;21027;-79
2021/09/08 06:28:37;;;;;;;77.12;57.60;;;;;;;15.24;76.37;99733.84;2289488;78;20908;-80
2021/09/08 06:31:37;;;;;;;70.47;29.98;;;;;;;15.39;75.66;99734.81;2290438;78;21324;-81
2021/09/08 06:34:38;;;;;;;43.48;28.80;;;;;;;15.59;75.86;99746.38;2290392;78;21304;-80
2021/09/08 06:37:38;;;;;;;53.00;36.00;;;;;;;15.82;75.33;99739.95;2290465;78;20990;-80
2021/09/08 06:40:39;;;;;;;101.85;65.45;;;;;;;16.05;75.07;99738.30;2290459;78;20955;-79
2021/09/08 06:43:40;;;;;;;62.95;45.17;;;;;;;16.39;74.35;99730.06;2290197;78;21016;-81
2021/09/08 06:46:40;;;;;;;92.27;53.08;;;;;;;16.69;74.20;99724.47;2291281;78;20924;-81
2021/09/08 06:49:41;;;;;;;87.82;55.05;;;;;;;16.96;73.36;99725.81;2291477;78;20926;-82
2021/09/08 06:52:41;;;;;;;104.38;55.05;;;;;;;17.23;73.09;99728.88;2291078;78;20928;-79
2021/09/08 06:55:42;;;;;;;120.08;81.10;;;;;;;17.45;72.30;99728.44;2290652;78;21007;-79
2021/09/08 06:58:43;;;;;;;80.47;58.02;;;;;;;17.72;71.64;99728.41;2290936;78;21014;-79
2021/09/08 07:01:43;;;;;;;75.20;52.58;;;;;;;18.01;71.65;99728.73;2290370;78;20988;-80
2021/09/08 07:04:44;;;;;;;65.72;46.30;;;;;;;18.24;69.98;99724.27;2289740;78;21681;-79
2021/09/08 07:07:44;;;;;;;53.50;39.33;;;;;;;18.24;69.45;99725.58;2289528;78;21272;-80
2021/09/08 07:10:45;;;;;;;160.03;45.23;;;;;;;18.59;69.31;99727.14;2290386;78;20952;-81
2021/09/08 07:13:45;;;;;;;46.40;32.08;;;;;;;18.59;69.31;99727.14;2288289;78;20978;-79
2021/09/08 07:16:46;;;;;;;50.38;33.38;;;;;;;18.80;68.51;99732.31;2280037;78;20937;-78
2021/09/08 07:19:46;;;;;;;45.48;31.07;;;;;;;19.08;67.81;99733.88;2280473;78;20981;-80
2021/09/08 07:22:47;;;;;;;38.53;30.80;;;;;;;19.22;66.55;99732.44;2280748;78;20915;-79
2021/09/08 07:25:47;;;;;;;46.25;32.60;;;;;;;19.22;66.57;99731.12;2277875;78;21365;-80
2021/09/08 07:28:48;;;;;;;46.28;30.62;;;;;;;19.32;66.23;99727.49;2279620;78;20926;-79
2021/09/08 07:31:48;;;;;;;42.70;29.10;;;;;;;19.58;65.80;99728.59;2280321;78;21420;-80
2021/09/08 07:34:49;;;;;;;39.65;27.40;;;;;;;19.74;65.18;99729.30;2280571;78;20945;-79
2021/09/08 07:37:49;;;;;;;40.98;29.72;;;;;;;19.93;64.25;99728.64;2279663;78;21008;-79
2021/09/08 07:40:50;;;;;;;40.08;29.23;;;;;;;20.13;63.90;99730.62;2279246;78;20949;-79
2021/09/08 07:43:50;;;;;;;39.95;28.23;;;;;;;20.34;63.33;99727.69;2279393;78;20929;-80
2021/09/08 07:46:51;;;;;;;44.05;29.95;;;;;;;20.46;62.14;99735.08;2279903;78;21012;-79
2021/09/08 07:49:52;;;;;;;39.95;27.98;;;;;;;20.59;62.37;99730.03;2279897;78;21337;-81
2021/09/08 07:52:52;;;;;;;38.90;28.92;;;;;;;20.73;62.13;99733.35;2279829;78;20968;-80
2021/09/08 07:55:53;;;;;;;36.33;26.45;;;;;;;20.70;61.47;99731.20;2279510;78;21029;-80
2021/09/08 07:58:53;;;;;;;74.53;29.02;;;;;;;20.77;61.03;99735.50;2280403;78;21438;-81
2021/09/08 08:01:54;;;;;;;43.25;27.70;;;;;;;20.74;60.65;99735.55;2280168;78;20946;-81
2021/09/08 08:04:55;;;;;;;40.25;27.52;;;;;;;20.85;61.00;99736.30;2279264;78;20973;-80
2021/09/08 08:07:55;;;;;;;38.75;29.67;;;;;;;21.12;60.53;99731.87;2280012;78;21592;-81
2021/09/08 08:10:56;;;;;;;48.48;34.23;;;;;;;21.30;60.13;99730.70;2280196;78;21291;-80
2021/09/08 08:13:56;;;;;;;123.00;39.10;;;;;;;21.53;59.49;99735.16;2274598;77;20993;-80
2021/09/08 08:16:57;;;;;;;56.20;36.60;;;;;;;21.72;59.18;99733.52;2248156;78;21018;-81
2021/09/08 08:19:57;;;;;;;50.28;33.42;;;;;;;21.91;58.98;99734.91;2247986;79;20936;-81
2021/09/08 08:22:58;;;;;;;46.15;31.87;;;;;;;22.13;58.48;99739.36;2248096;78;20959;-79
2021/09/08 08:25:58;;;;;;;36.77;28.23;;;;;;;22.30;58.05;99735.02;2247943;79;20979;-79
2021/09/08 08:28:59;;;;;;;40.60;26.55;;;;;;;22.43;56.93;99736.04;2248377;79;21422;-78
2021/09/08 08:32:00;;;;;;;40.12;25.88;;;;;;;22.54;56.70;99738.46;2247260;79;20939;-80
2021/09/08 08:35:00;;;;;;;127.07;32.63;;;;;;;22.62;56.58;99738.32;2247050;78;20971;-80
2021/09/08 08:38:01;;;;;;;32.23;24.43;;;;;;;22.70;56.04;99741.23;2246867;79;21040;-79
2021/09/08 08:41:01;;;;;;;40.45;24.95;;;;;;;22.79;55.91;99743.67;2246577;78;20908;-80
2021/09/08 08:44:02;;;;;;;45.73;24.63;;;;;;;22.92;55.76;99743.41;2246910;79;20889;-78
2021/09/08 08:47:03;;;;;;;32.13;23.65;;;;;;;23.11;55.73;99742.05;2247662;79;21274;-78
2021/09/08 08:50:04;;;;;;;30.43;23.07;;;;;;;23.30;54.77;99742.00;2247366;79;20920;-78
2021/09/08 08:53:05;;;;;;;32.38;23.02;;;;;;;23.36;53.59;99732.52;2247326;79;20928;-78
2021/09/08 08:56:05;;;;;;;40.08;23.32;;;;;;;23.37;53.97;99729.41;2246999;79;21364;-79
2021/09/08 08:59:06;;;;;;;36.90;23.65;;;;;;;23.37;53.24;99732.94;2246255;79;20943;-79
2021/09/08 09:02:06;;;;;;;38.23;23.77;;;;;;;23.38;50.17;99730.69;2247525;79;20940;-79
2021/09/08 09:05:07;;;;;;;32.78;22.60;;;;;;;23.46;52.00;99732.73;2247622;78;21384;-78
2021/09/08 09:08:08;;;;;;;31.37;20.82;;;;;;;23.57;52.27;99722.28;2248163;79;20936;-80
2021/09/08 09:11:08;;;;;;;106.17;85.35;;;;;;;23.70;52.42;99727.69;2248559;79;21015;-79
2021/09/08 09:14:09;;;;;;;38.00;22.05;;;;;;;23.72;51.02;99721.86;2252770;77;21000;-79
2021/09/08 09:17:09;;;;;;;26.17;20.62;;;;;;;23.84;51.86;99724.18;2280168;78;20925;-80
2021/09/08 09:20:10;;;;;;;37.80;22.85;;;;;;;23.88;51.63;99729.84;2280325;78;20962;-79
2021/09/08 09:23:10;;;;;;;31.02;20.68;;;;;;;23.91;51.96;99727.09;2279652;78;21306;-80
2021/09/08 09:26:11;;;;;;;26.65;19.45;;;;;;;24.06;51.34;99723.11;2279902;78;21353;-80
2021/09/08 09:29:11;;;;;;;26.80;19.92;;;;;;;24.13;51.79;99721.55;2279908;78;20925;-80
2021/09/08 09:32:12;;;;;;;26.27;18.75;;;;;;;24.21;50.13;99716.45;2279538;78;20961;-79
2021/09/08 09:35:12;;;;;;;25.15;18.17;;;;;;;23.99;51.35;99718.41;2277961;78;20937;-79
2021/09/08 09:38:13;;;;;;;22.95;19.45;;;;;;;23.91;51.48;99721.75;2279196;78;20957;-80
2021/09/08 09:41:14;;;;;;;22.95;18.40;;;;;;;23.88;50.49;99716.97;2279224;78;20937;-79
2021/09/08 09:44:14;;;;;;;21.20;17.10;;;;;;;23.59;50.94;99716.45;2278641;78;20978;-80
2021/09/08 09:47:15;;;;;;;52.00;18.17;;;;;;;23.67;51.75;99721.11;2278690;78;21309;-80
2021/09/08 09:50:17;;;;;;;21.17;16.23;;;;;;;23.88;50.97;99704.52;2280062;78;21372;-78
2021/09/08 09:53:17;;;;;;;17.30;15.40;;;;;;;24.06;49.62;99711.11;2280432;78;20938;-79
2021/09/08 09:56:18;;;;;;;20.75;18.10;;;;;;;23.95;48.79;99707.42;2280208;78;21369;-79
2021/09/08 10:03:05;;;;;;;28.62;22.35;;;;;;;24.36;49.60;99705.38;2318978;75;22541;-78
2021/09/08 10:06:05;;;;;;;28.35;17.60;;;;;;;24.53;49.28;99705.73;2296732;77;21019;-78
2021/09/08 10:09:06;;;;;;;21.90;17.32;;;;;;;24.59;48.45;99704.66;2286168;77;21338;-78
2021/09/08 10:12:06;;;;;;;16.85;15.00;;;;;;;24.66;48.83;99699.55;2293937;77;20982;-80
2021/09/08 10:15:07;;;;;;;22.32;15.10;;;;;;;24.63;46.23;99697.84;2279004;77;20943;-79
2021/09/08 10:18:08;;;;;;;20.65;16.17;;;;;;;24.40;47.35;99693.23;2277607;77;21007;-79
2021/09/08 10:21:08;;;;;;;20.35;15.03;;;;;;;24.18;47.01;99696.53;2294767;77;21009;-80
2021/09/08 10:24:09;;;;;;;23.83;16.45;;;;;;;24.19;47.44;99695.16;2288386;77;20939;-79
2021/09/08 10:27:09;;;;;;;18.35;14.87;;;;;;;24.18;46.47;99693.86;2280166;77;21704;-79
2021/09/08 10:30:10;;;;;;;18.60;14.60;;;;;;;24.05;46.40;99696.02;2282713;77;20999;-79
2021/09/08 10:33:10;;;;;;;26.00;18.52;;;;;;;24.00;46.43;99689.48;2274438;77;20982;-79
2021/09/08 10:36:11;;;;;;;18.60;16.50;;;;;;;24.13;47.62;99691.34;2278343;77;20960;-78
2021/09/08 10:39:11;;;;;;;15.32;11.97;;;;;;;24.46;46.86;99692.16;2261064;77;20979;-78
2021/09/08 10:42:12;;;;;;;15.90;14.13;;;;;;;24.67;46.29;99684.81;2271693;77;20987;-79
2021/09/08 10:45:12;;;;;;;18.35;14.55;;;;;;;24.64;45.78;99683.58;2294912;77;21010;-79
2021/09/08 10:48:13;;;;;;;26.90;15.78;;;;;;;24.76;46.37;99678.30;2267568;77;20998;-77
2021/09/08 10:51:13;;;;;;;20.12;14.73;;;;;;;24.87;45.68;99680.16;2277496;77;20959;-79
2021/09/08 10:54:14;;;;;;;22.32;15.25;;;;;;;24.64;46.67;99676.91;2270419;77;21011;-79
2021/09/08 10:57:15;;;;;;;15.93;13.88;;;;;;;24.50;46.23;99671.59;2271713;77;21080;-78
2021/09/08 11:00:15;;;;;;;34.40;16.70;;;;;;;24.29;47.14;99667.34;2269088;77;20979;-78
2021/09/08 11:03:16;;;;;;;16.73;12.30;;;;;;;24.61;47.46;99673.00;2287178;77;20987;-78
2021/09/08 11:06:16;;;;;;;17.57;14.33;;;;;;;24.87;45.20;99667.27;2266273;77;21328;-79
2021/09/08 11:09:17;;;;;;;18.40;14.05;;;;;;;24.97;45.33;99663.36;2267686;77;21407;-79
2021/09/08 11:12:17;;;;;;;19.02;14.33;;;;;;;25.15;45.09;99660.13;2261633;77;20971;-79
2021/09/08 11:15:20;;;;;;;88.70;18.37;;;;;;;25.30;45.26;99662.27;2275971;77;21396;-79
2021/09/08 11:18:21;;;;;;;22.05;14.30;;;;;;;25.44;44.42;99651.55;2260484;77;21431;-79
2021/09/08 11:21:22;;;;;;;15.43;12.25;;;;;;;25.58;43.84;99651.92;2258225;77;20955;-80
2021/09/08 11:24:22;;;;;;;15.30;11.43;;;;;;;25.73;42.76;99649.18;2256603;77;20998;-80
2021/09/08 11:27:24;;;;;;;13.10;10.98;;;;;;;25.70;43.48;99648.83;2281465;77;21319;-78
2021/09/08 11:30:25;;;;;;;14.25;11.18;;;;;;;25.85;43.14;99648.25;2286079;77;21436;-79
2021/09/08 11:33:26;;;;;;;15.95;11.40;;;;;;;25.99;42.29;99644.59;2280170;77;21023;-78
2021/09/08 11:36:26;;;;;;;14.70;12.10;;;;;;;26.11;42.08;99645.08;2252654;77;20939;-78
2021/09/08 11:39:27;;;;;;;16.17;10.75;;;;;;;25.90;41.77;99645.41;2259560;77;21003;-80
2021/09/08 11:42:28;;;;;;;15.28;10.50;;;;;;;26.06;41.67;99640.38;2256268;77;21392;-78
2021/09/08 11:45:28;;;;;;;17.23;10.60;;;;;;;26.23;40.68;99638.78;2276630;77;21365;-79
2021/09/08 11:48:29;;;;;;;12.98;11.15;;;;;;;26.29;40.75;99637.67;2280725;77;20975;-78
2021/09/08 11:51:31;;;;;;;18.45;11.83;;;;;;;26.24;40.21;99639.19;2270859;77;20963;-78
2021/09/08 11:54:33;;;;;;;16.15;14.07;;;;;;;26.31;41.09;99635.80;2258047;77;21082;-79
2021/09/08 11:57:34;;;;;;;14.55;12.55;;;;;;;26.42;40.13;99638.09;2251404;77;21074;-78
2021/09/08 12:00:37;;;;;;;14.83;13.32;;;;;;;26.53;39.39;99637.19;2270855;77;21018;-78
2021/09/08 12:03:38;;;;;;;10.65;9.65;;;;;;;26.48;39.27;99634.70;2273560;77;21756;-79
2021/09/08 12:06:39;;;;;;;13.50;10.63;;;;;;;26.18;37.21;99634.55;2265921;77;20948;-79
2021/09/08 12:09:43;;;;;;;12.98;10.10;;;;;;;26.03;39.20;99632.88;2258451;77;21286;-78
2021/09/08 12:12:42;;;;;;;12.03;10.55;;;;;;;26.09;38.58;99629.09;2251550;77;21058;-78
2021/09/08 12:15:42;;;;;;;15.20;10.45;;;;;;;26.12;39.28;99631.64;2257473;77;21006;-79
2021/09/08 12:18:43;;;;;;;14.47;10.10;;;;;;;26.10;38.80;99623.27;2271301;77;21390;-80
2021/09/08 12:21:43;;;;;;;15.58;11.10;;;;;;;26.06;39.11;99622.98;2273662;77;21030;-79
2021/09/08 12:24:44;;;;;;;12.47;10.90;;;;;;;26.00;38.65;99626.27;2274856;77;20943;-79
2021/09/08 12:27:44;;;;;;;12.88;10.08;;;;;;;25.81;39.34;99619.88;2284286;77;20996;-78
2021/09/08 12:30:45;;;;;;;11.20;10.10;;;;;;;25.76;39.82;99616.98;2289389;77;21034;-79
2021/09/08 12:33:46;;;;;;;13.28;10.63;;;;;;;25.89;39.40;99608.89;2268534;77;21010;-80
2021/09/08 12:36:47;;;;;;;11.25;10.20;;;;;;;25.86;39.31;99609.88;2246836;78;21037;-79
2021/09/08 12:39:47;;;;;;;50.48;44.85;;;;;;;25.84;38.32;99599.71;2265409;78;21346;-79
2021/09/08 12:42:48;;;;;;;32.95;29.65;;;;;;;26.00;37.66;99594.17;2272601;78;21432;-79
2021/09/08 12:45:49;;;;;;;22.93;20.65;;;;;;;26.00;37.66;99594.17;2254766;78;20986;-78
2021/09/08 12:48:49;;;;;;;13.25;11.88;;;;;;;26.06;38.10;99596.23;2268698;77;20956;-78
2021/09/08 12:51:50;;;;;;;10.95;9.88;;;;;;;25.99;38.40;99592.43;2290230;77;20955;-79
2021/09/08 12:54:51;;;;;;;10.23;9.20;;;;;;;25.95;36.61;99592.14;2284314;77;21015;-79
2021/09/08 12:57:51;;;;;;;9.25;8.35;;;;;;;25.70;37.89;99592.22;2265079;78;20940;-80
2021/09/08 13:00:52;;;;;;;25.80;10.30;;;;;;;25.75;37.38;99589.83;2247162;78;21401;-79
2021/09/08 13:03:53;;;;;;;13.30;9.85;;;;;;;25.89;37.12;99579.01;2278035;77;21022;-80
2021/09/08 13:06:53;;;;;;;11.15;8.78;;;;;;;26.06;37.29;99578.84;2246224;78;20956;-80
2021/09/08 13:09:54;;;;;;;12.28;8.58;;;;;;;26.16;36.72;99571.73;2289486;78;21004;-79
2021/09/08 13:12:54;;;;;;;17.45;9.40;;;;;;;26.27;36.59;99575.30;2258556;78;20943;-79
2021/09/08 13:15:55;;;;;;;8.78;7.65;;;;;;;26.37;36.68;99566.47;2274530;77;21086;-79
2021/09/08 13:18:55;;;;;;;10.75;9.08;;;;;;;26.38;36.73;99571.76;2259502;77;21435;-79
2021/09/08 13:21:56;;;;;;;12.05;9.28;;;;;;;26.39;36.26;99564.60;2265667;77;20999;-79
2021/09/08 13:24:56;;;;;;;10.48;9.43;;;;;;;26.20;35.90;99563.11;2280792;77;21019;-79
2021/09/08 13:27:57;;;;;;;9.33;8.35;;;;;;;26.21;36.27;99558.16;2266964;78;20975;-79
2021/09/08 13:30:58;;;;;;;13.70;8.50;;;;;;;26.19;35.15;99557.36;2248338;78;20964;-80
2021/09/08 13:33:59;;;;;;;9.38;8.48;;;;;;;26.15;35.47;99558.41;2286147;78;21446;-80
2021/09/08 13:36:59;;;;;;;9.98;8.10;;;;;;;25.93;34.67;99553.88;2188427;80;20964;-78
2021/09/08 13:40:00;;;;;;;9.45;8.53;;;;;;;25.87;36.18;99548.78;2192343;81;21382;-80
2021/09/08 13:43:01;;;;;;;9.18;8.38;;;;;;;25.80;34.72;99546.41;2217054;79;21048;-79
2021/09/08 13:46:02;;;;;;;9.55;8.60;;;;;;;25.70;35.69;99543.22;2203910;80;21035;-79
2021/09/08 13:49:03;;;;;;;11.75;10.55;;;;;;;25.86;35.92;99535.47;2205694;80;20968;-78
2021/09/08 13:52:04;;;;;;;12.50;8.55;;;;;;;25.93;35.81;99525.80;2215193;79;20956;-79
2021/09/08 13:55:04;;;;;;;9.40;8.50;;;;;;;26.03;36.24;99523.66;2196809;80;21011;-79